Terminal Aerodrome Forecast
Issued by NWS Binghamton, NY

Home | Current Version | Previous Version | Text Only | Print | Product List | Glossary On
Versions: 1 2 3 4 5 6 7 8 9 10 11 12 13 14 15 16 17 18 19 20 21 22 23 24 25 26 27 28 29 30 31 32
000
FTUS41 KBGM 231100
TAFSYR
TAF
KSYR 231136Z 2312/2412 31008KT P6SM BKN030 OVC080
      TEMPO 2312/2314 BKN025
     FM231400 34012G18KT P6SM OVC025
      TEMPO 2320/2324 -SHRA
     FM240000 34008KT P6SM SCT035 BKN060=

USA.gov is the U.S. government's official web portal to all federal, state and local government web resources and services.